sensor_id;sensor_type;location;lat;lon;timestamp;temperature;humidity
13049;DHT22;6591;51.446;5.404;2022-08-11T00:01:58;22.80;59.10
13049;DHT22;6591;51.446;5.404;2022-08-11T00:04:27;22.80;59.30
13049;DHT22;6591;51.446;5.404;2022-08-11T00:07:02;22.50;59.10
13049;DHT22;6591;51.446;5.404;2022-08-11T00:09:36;23.60;59.90
13049;DHT22;6591;51.446;5.404;2022-08-11T00:12:12;22.60;59.20
13049;DHT22;6591;51.446;5.404;2022-08-11T00:14:43;22.60;59.50
13049;DHT22;6591;51.446;5.404;2022-08-11T00:17:13;22.60;59.50
13049;DHT22;6591;51.446;5.404;2022-08-11T00:19:47;22.60;59.50
13049;DHT22;6591;51.446;5.404;2022-08-11T00:22:37;24.10;60.60
13049;DHT22;6591;51.446;5.404;2022-08-11T00:25:13;22.40;59.50
13049;DHT22;6591;51.446;5.404;2022-08-11T00:27:43;22.40;60.00
13049;DHT22;6591;51.446;5.404;2022-08-11T00:30:13;22.30;59.80
13049;DHT22;6591;51.446;5.404;2022-08-11T00:32:44;22.30;60.10
13049;DHT22;6591;51.446;5.404;2022-08-11T00:35:33;22.20;60.00
13049;DHT22;6591;51.446;5.404;2022-08-11T00:38:23;22.20;60.40
13049;DHT22;6591;51.446;5.404;2022-08-11T00:44:07;22.10;61.10
13049;DHT22;6591;51.446;5.404;2022-08-11T00:47:09;22.10;61.90
13049;DHT22;6591;51.446;5.404;2022-08-11T00:53:38;22.00;62.00
13049;DHT22;6591;51.446;5.404;2022-08-11T00:56:45;21.90;62.20
13049;DHT22;6591;51.446;5.404;2022-08-11T01:00:14;21.90;62.30
13049;DHT22;6591;51.446;5.404;2022-08-11T01:02:52;21.90;62.00
13049;DHT22;6591;51.446;5.404;2022-08-11T01:12:48;21.60;62.30
13049;DHT22;6591;51.446;5.404;2022-08-11T01:15:46;21.60;62.50
13049;DHT22;6591;51.446;5.404;2022-08-11T01:28:54;21.20;63.20
13049;DHT22;6591;51.446;5.404;2022-08-11T01:59:31;20.70;66.00
13049;DHT22;6591;51.446;5.404;2022-08-11T02:05:32;20.50;66.90
13049;DHT22;6591;51.446;5.404;2022-08-11T02:08:13;20.40;66.50
13049;DHT22;6591;51.446;5.404;2022-08-11T02:20:24;20.20;67.90
13049;DHT22;6591;51.446;5.404;2022-08-11T02:26:41;21.80;68.90
13049;DHT22;6591;51.446;5.404;2022-08-11T02:36:15;20.00;68.70
13049;DHT22;6591;51.446;5.404;2022-08-11T02:39:09;19.90;68.50
13049;DHT22;6591;51.446;5.404;2022-08-11T02:41:55;20.00;69.40
13049;DHT22;6591;51.446;5.404;2022-08-11T02:47:59;19.70;68.90
13049;DHT22;6591;51.446;5.404;2022-08-11T02:57:26;19.60;70.80
13049;DHT22;6591;51.446;5.404;2022-08-11T03:00:09;19.50;69.60
13049;DHT22;6591;51.446;5.404;2022-08-11T03:05:35;19.40;70.90
13049;DHT22;6591;51.446;5.404;2022-08-11T03:08:15;20.60;71.10
13049;DHT22;6591;51.446;5.404;2022-08-11T03:11:17;19.30;70.30
13049;DHT22;6591;51.446;5.404;2022-08-11T03:14:18;19.30;71.40
13049;DHT22;6591;51.446;5.404;2022-08-11T03:17:20;19.20;70.90
13049;DHT22;6591;51.446;5.404;2022-08-11T03:20:00;19.20;71.50
13049;DHT22;6591;51.446;5.404;2022-08-11T03:26:09;19.10;72.30
13049;DHT22;6591;51.446;5.404;2022-08-11T03:32:27;19.10;72.40
13049;DHT22;6591;51.446;5.404;2022-08-11T03:35:00;20.20;72.40
13049;DHT22;6591;51.446;5.404;2022-08-11T03:37:50;19.00;71.80
13049;DHT22;6591;51.446;5.404;2022-08-11T03:40:37;19.70;73.50
13049;DHT22;6591;51.446;5.404;2022-08-11T03:44:03;18.90;72.60
13049;DHT22;6591;51.446;5.404;2022-08-11T03:47:02;18.80;72.30
13049;DHT22;6591;51.446;5.404;2022-08-11T03:50:04;18.70;72.20
13049;DHT22;6591;51.446;5.404;2022-08-11T04:32:56;18.20;76.50
13049;DHT22;6591;51.446;5.404;2022-08-11T04:35:45;18.10;76.70
13049;DHT22;6591;51.446;5.404;2022-08-11T04:52:21;18.10;77.90
13049;DHT22;6591;51.446;5.404;2022-08-11T05:08:54;18.20;77.90
13049;DHT22;6591;51.446;5.404;2022-08-11T05:11:44;18.20;79.30
13049;DHT22;6591;51.446;5.404;2022-08-11T05:14:40;18.30;78.10
13049;DHT22;6591;51.446;5.404;2022-08-11T05:17:57;18.40;79.10
13049;DHT22;6591;51.446;5.404;2022-08-11T05:20:54;18.40;79.40
13049;DHT22;6591;51.446;5.404;2022-08-11T05:23:48;18.50;78.30
13049;DHT22;6591;51.446;5.404;2022-08-11T05:27:02;18.60;78.70
13049;DHT22;6591;51.446;5.404;2022-08-11T05:30:08;18.70;78.10
13049;DHT22;6591;51.446;5.404;2022-08-11T05:33:07;18.80;79.30
13049;DHT22;6591;51.446;5.404;2022-08-11T05:36:10;19.50;79.20
13049;DHT22;6591;51.446;5.404;2022-08-11T05:38:55;18.90;79.40
13049;DHT22;6591;51.446;5.404;2022-08-11T05:41:45;19.00;79.20
13049;DHT22;6591;51.446;5.404;2022-08-11T05:44:47;19.10;78.70
13049;DHT22;6591;51.446;5.404;2022-08-11T05:47:41;21.20;79.50
13049;DHT22;6591;51.446;5.404;2022-08-11T05:50:33;19.40;78.30
13049;DHT22;6591;51.446;5.404;2022-08-11T05:53:21;21.50;79.10
13049;DHT22;6591;51.446;5.404;2022-08-11T05:56:12;19.70;77.70
13049;DHT22;6591;51.446;5.404;2022-08-11T05:58:58;19.90;77.60
13049;DHT22;6591;51.446;5.404;2022-08-11T06:01:32;21.60;78.20
13049;DHT22;6591;51.446;5.404;2022-08-11T06:04:06;20.20;77.20
13049;DHT22;6591;51.446;5.404;2022-08-11T06:06:59;21.50;77.70
13049;DHT22;6591;51.446;5.404;2022-08-11T06:09:38;20.60;76.70
13049;DHT22;6591;51.446;5.404;2022-08-11T06:12:20;20.80;76.20
13049;DHT22;6591;51.446;5.404;2022-08-11T06:14:53;22.90;77.10
13049;DHT22;6591;51.446;5.404;2022-08-11T06:17:24;21.20;75.50
13049;DHT22;6591;51.446;5.404;2022-08-11T06:20:07;22.50;75.90
13049;DHT22;6591;51.446;5.404;2022-08-11T06:22:41;21.50;74.70
13049;DHT22;6591;51.446;5.404;2022-08-11T06:25:18;22.30;74.80
13049;DHT22;6591;51.446;5.404;2022-08-11T06:27:53;21.90;74.10
13049;DHT22;6591;51.446;5.404;2022-08-11T06:30:40;23.20;74.30
13049;DHT22;6591;51.446;5.404;2022-08-11T06:33:36;22.20;73.10
13049;DHT22;6591;51.446;5.404;2022-08-11T06:36:14;22.40;72.80
13049;DHT22;6591;51.446;5.404;2022-08-11T06:41:58;22.70;72.00
13049;DHT22;6591;51.446;5.404;2022-08-11T06:45:05;23.00;71.50
13049;DHT22;6591;51.446;5.404;2022-08-11T06:47:47;24.30;72.00
13049;DHT22;6591;51.446;5.404;2022-08-11T06:50:20;23.40;70.80
13049;DHT22;6591;51.446;5.404;2022-08-11T06:53:08;23.60;70.40
13049;DHT22;6591;51.446;5.404;2022-08-11T06:55:39;23.80;69.70
13049;DHT22;6591;51.446;5.404;2022-08-11T06:58:37;24.70;69.80
13049;DHT22;6591;51.446;5.404;2022-08-11T07:01:40;24.40;67.30
13049;DHT22;6591;51.446;5.404;2022-08-11T07:04:50;24.30;68.70
13049;DHT22;6591;51.446;5.404;2022-08-11T07:14:35;25.00;66.80
13049;DHT22;6591;51.446;5.404;2022-08-11T07:17:27;25.30;66.60
13049;DHT22;6591;51.446;5.404;2022-08-11T07:19:59;25.50;66.00
13049;DHT22;6591;51.446;5.404;2022-08-11T07:22:58;26.90;66.90
13049;DHT22;6591;51.446;5.404;2022-08-11T07:25:51;25.70;64.60
13049;DHT22;6591;51.446;5.404;2022-08-11T07:28:44;26.00;65.10
13049;DHT22;6591;51.446;5.404;2022-08-11T07:31:34;26.20;64.10
13049;DHT22;6591;51.446;5.404;2022-08-11T07:34:29;26.30;63.30
13049;DHT22;6591;51.446;5.404;2022-08-11T07:37:02;26.30;63.60
13049;DHT22;6591;51.446;5.404;2022-08-11T07:39:38;26.60;62.80
13049;DHT22;6591;51.446;5.404;2022-08-11T07:42:14;26.60;62.30
13049;DHT22;6591;51.446;5.404;2022-08-11T07:44:47;27.60;61.60
13049;DHT22;6591;51.446;5.404;2022-08-11T07:47:36;26.80;61.40
13049;DHT22;6591;51.446;5.404;2022-08-11T07:50:24;28.50;61.90
13049;DHT22;6591;51.446;5.404;2022-08-11T07:53:12;27.50;59.90
13049;DHT22;6591;51.446;5.404;2022-08-11T07:55:41;28.20;60.20
13049;DHT22;6591;51.446;5.404;2022-08-11T07:58:22;27.60;59.10
13049;DHT22;6591;51.446;5.404;2022-08-11T08:01:24;28.00;59.80
13049;DHT22;6591;51.446;5.404;2022-08-11T08:04:13;28.20;59.10
13049;DHT22;6591;51.446;5.404;2022-08-11T08:07:05;28.40;58.30
13049;DHT22;6591;51.446;5.404;2022-08-11T08:09:53;29.90;58.50
13049;DHT22;6591;51.446;5.404;2022-08-11T08:12:42;29.00;57.80
13049;DHT22;6591;51.446;5.404;2022-08-11T08:15:30;29.20;56.60
13049;DHT22;6591;51.446;5.404;2022-08-11T08:18:17;29.80;56.40
13049;DHT22;6591;51.446;5.404;2022-08-11T08:20:55;29.40;56.40
13049;DHT22;6591;51.446;5.404;2022-08-11T08:23:44;28.80;55.10
13049;DHT22;6591;51.446;5.404;2022-08-11T08:26:22;32.00;56.40
13049;DHT22;6591;51.446;5.404;2022-08-11T08:29:17;31.00;55.60
13049;DHT22;6591;51.446;5.404;2022-08-11T08:32:06;30.70;54.70
13049;DHT22;6591;51.446;5.404;2022-08-11T08:34:41;31.00;53.60
13049;DHT22;6591;51.446;5.404;2022-08-11T08:37:11;31.10;53.10
13049;DHT22;6591;51.446;5.404;2022-08-11T08:40:00;31.30;53.10
13049;DHT22;6591;51.446;5.404;2022-08-11T08:42:31;31.40;52.90
13049;DHT22;6591;51.446;5.404;2022-08-11T08:45:12;33.50;53.90
13049;DHT22;6591;51.446;5.404;2022-08-11T08:48:01;32.00;51.70
13049;DHT22;6591;51.446;5.404;2022-08-11T08:50:34;32.10;50.30
13049;DHT22;6591;51.446;5.404;2022-08-11T08:53:27;32.50;50.80
13049;DHT22;6591;51.446;5.404;2022-08-11T08:56:01;32.20;50.10
13049;DHT22;6591;51.446;5.404;2022-08-11T08:58:29;32.30;50.30
13049;DHT22;6591;51.446;5.404;2022-08-11T09:00:58;32.40;50.60
13049;DHT22;6591;51.446;5.404;2022-08-11T09:03:27;34.60;51.60
13049;DHT22;6591;51.446;5.404;2022-08-11T09:06:19;32.60;50.30
13049;DHT22;6591;51.446;5.404;2022-08-11T09:08:51;32.90;50.10
13049;DHT22;6591;51.446;5.404;2022-08-11T09:11:22;33.00;49.50
13049;DHT22;6591;51.446;5.404;2022-08-11T09:14:10;33.20;48.30
13049;DHT22;6591;51.446;5.404;2022-08-11T09:16:42;33.30;48.50
13049;DHT22;6591;51.446;5.404;2022-08-11T09:19:13;34.70;49.40
13049;DHT22;6591;51.446;5.404;2022-08-11T09:21:49;33.50;47.90
13049;DHT22;6591;51.446;5.404;2022-08-11T09:24:36;33.60;48.00
13049;DHT22;6591;51.446;5.404;2022-08-11T09:27:24;33.70;47.10
13049;DHT22;6591;51.446;5.404;2022-08-11T09:29:52;33.80;46.70
13049;DHT22;6591;51.446;5.404;2022-08-11T09:32:24;33.70;46.30
13049;DHT22;6591;51.446;5.404;2022-08-11T09:34:55;33.70;46.30
13049;DHT22;6591;51.446;5.404;2022-08-11T09:37:28;33.80;47.10
13049;DHT22;6591;51.446;5.404;2022-08-11T09:40:23;33.80;46.30
13049;DHT22;6591;51.446;5.404;2022-08-11T09:43:05;34.10;46.70
13049;DHT22;6591;51.446;5.404;2022-08-11T09:45:57;34.30;46.40
13049;DHT22;6591;51.446;5.404;2022-08-11T09:48:28;34.40;46.10
13049;DHT22;6591;51.446;5.404;2022-08-11T09:50:59;34.60;45.40
13049;DHT22;6591;51.446;5.404;2022-08-11T09:53:34;34.50;45.10
13049;DHT22;6591;51.446;5.404;2022-08-11T09:56:17;34.60;44.80
13049;DHT22;6591;51.446;5.404;2022-08-11T09:59:07;34.80;44.90
13049;DHT22;6591;51.446;5.404;2022-08-11T10:01:43;35.00;45.20
13049;DHT22;6591;51.446;5.404;2022-08-11T10:04:19;35.30;44.70
13049;DHT22;6591;51.446;5.404;2022-08-11T10:06:54;35.30;43.80
13049;DHT22;6591;51.446;5.404;2022-08-11T10:12:33;35.50;42.50
13049;DHT22;6591;51.446;5.404;2022-08-11T10:15:08;35.70;42.40
13049;DHT22;6591;51.446;5.404;2022-08-11T10:18:01;35.80;42.70
13049;DHT22;6591;51.446;5.404;2022-08-11T10:20:59;35.90;42.90
13049;DHT22;6591;51.446;5.404;2022-08-11T10:23:33;36.30;42.70
13049;DHT22;6591;51.446;5.404;2022-08-11T10:26:32;37.40;43.30
13049;DHT22;6591;51.446;5.404;2022-08-11T10:32:20;36.70;40.90
13049;DHT22;6591;51.446;5.404;2022-08-11T10:35:26;36.70;40.10
13049;DHT22;6591;51.446;5.404;2022-08-11T10:37:56;36.70;40.90
13049;DHT22;6591;51.446;5.404;2022-08-11T10:40:39;36.70;40.90
13049;DHT22;6591;51.446;5.404;2022-08-11T10:43:11;36.80;40.00
13049;DHT22;6591;51.446;5.404;2022-08-11T10:46:00;37.00;40.10
13049;DHT22;6591;51.446;5.404;2022-08-11T10:48:57;37.10;39.80
13049;DHT22;6591;51.446;5.404;2022-08-11T10:51:29;37.30;39.20
13049;DHT22;6591;51.446;5.404;2022-08-11T10:54:20;37.50;38.20
13049;DHT22;6591;51.446;5.404;2022-08-11T10:57:07;37.60;38.50
13049;DHT22;6591;51.446;5.404;2022-08-11T10:59:55;37.60;38.10
13049;DHT22;6591;51.446;5.404;2022-08-11T11:02:23;37.50;37.50
13049;DHT22;6591;51.446;5.404;2022-08-11T11:05:15;37.50;36.90
13049;DHT22;6591;51.446;5.404;2022-08-11T11:08:08;37.40;37.10
13049;DHT22;6591;51.446;5.404;2022-08-11T11:11:00;37.50;37.50
13049;DHT22;6591;51.446;5.404;2022-08-11T11:13:33;37.40;37.50
13049;DHT22;6591;51.446;5.404;2022-08-11T11:16:24;37.70;37.60
13049;DHT22;6591;51.446;5.404;2022-08-11T11:19:11;38.00;36.90
13049;DHT22;6591;51.446;5.404;2022-08-11T11:21:53;38.10;36.50
13049;DHT22;6591;51.446;5.404;2022-08-11T11:25:12;38.20;34.80
13049;DHT22;6591;51.446;5.404;2022-08-11T11:28:04;38.30;35.40
13049;DHT22;6591;51.446;5.404;2022-08-11T11:30:58;38.40;35.90
13049;DHT22;6591;51.446;5.404;2022-08-11T11:37:21;39.00;35.20
13049;DHT22;6591;51.446;5.404;2022-08-11T11:39:53;39.30;35.40
13049;DHT22;6591;51.446;5.404;2022-08-11T11:42:24;39.40;35.20
13049;DHT22;6591;51.446;5.404;2022-08-11T11:44:52;39.50;35.20
13049;DHT22;6591;51.446;5.404;2022-08-11T11:47:22;39.50;34.80
13049;DHT22;6591;51.446;5.404;2022-08-11T11:49:50;39.60;34.80
13049;DHT22;6591;51.446;5.404;2022-08-11T11:52:20;39.80;34.50
13049;DHT22;6591;51.446;5.404;2022-08-11T11:54:51;40.10;34.10
13049;DHT22;6591;51.446;5.404;2022-08-11T11:57:23;40.20;34.10
13049;DHT22;6591;51.446;5.404;2022-08-11T12:00:28;40.40;33.90
13049;DHT22;6591;51.446;5.404;2022-08-11T12:03:15;40.70;33.30
13049;DHT22;6591;51.446;5.404;2022-08-11T12:05:44;41.00;33.40
13049;DHT22;6591;51.446;5.404;2022-08-11T12:08:14;41.20;33.10
13049;DHT22;6591;51.446;5.404;2022-08-11T12:11:06;41.40;32.90
13049;DHT22;6591;51.446;5.404;2022-08-11T12:13:57;41.50;32.70
13049;DHT22;6591;51.446;5.404;2022-08-11T12:16:28;41.90;32.70
13049;DHT22;6591;51.446;5.404;2022-08-11T12:19:12;41.80;31.60
13049;DHT22;6591;51.446;5.404;2022-08-11T12:21:41;41.80;30.60
13049;DHT22;6591;51.446;5.404;2022-08-11T12:24:30;41.70;30.80
13049;DHT22;6591;51.446;5.404;2022-08-11T12:27:18;41.50;30.80
13049;DHT22;6591;51.446;5.404;2022-08-11T12:29:53;41.30;30.60
13049;DHT22;6591;51.446;5.404;2022-08-11T12:32:26;41.00;31.00
13049;DHT22;6591;51.446;5.404;2022-08-11T12:34:57;40.80;31.20
13049;DHT22;6591;51.446;5.404;2022-08-11T12:37:31;40.70;31.40
13049;DHT22;6591;51.446;5.404;2022-08-11T12:40:11;40.70;30.90
13049;DHT22;6591;51.446;5.404;2022-08-11T12:43:20;40.70;30.60
13049;DHT22;6591;51.446;5.404;2022-08-11T12:46:09;40.70;31.20
13049;DHT22;6591;51.446;5.404;2022-08-11T12:48:44;40.90;31.20
13049;DHT22;6591;51.446;5.404;2022-08-11T12:51:37;40.40;30.70
13049;DHT22;6591;51.446;5.404;2022-08-11T12:57:39;40.20;30.00
13049;DHT22;6591;51.446;5.404;2022-08-11T13:00:31;40.10;30.00
13049;DHT22;6591;51.446;5.404;2022-08-11T13:03:20;39.90;30.80
13049;DHT22;6591;51.446;5.404;2022-08-11T13:06:07;39.90;31.50
13049;DHT22;6591;51.446;5.404;2022-08-11T13:08:37;39.90;31.30
13049;DHT22;6591;51.446;5.404;2022-08-11T13:11:06;40.00;31.10
13049;DHT22;6591;51.446;5.404;2022-08-11T13:14:14;40.20;31.20
13049;DHT22;6591;51.446;5.404;2022-08-11T13:16:43;40.30;30.30
13049;DHT22;6591;51.446;5.404;2022-08-11T13:19:30;40.30;30.10
13049;DHT22;6591;51.446;5.404;2022-08-11T13:22:00;40.30;30.10
13049;DHT22;6591;51.446;5.404;2022-08-11T13:24:31;40.30;30.30
13049;DHT22;6591;51.446;5.404;2022-08-11T13:27:02;40.30;30.60
13049;DHT22;6591;51.446;5.404;2022-08-11T13:29:29;40.30;30.30
13049;DHT22;6591;51.446;5.404;2022-08-11T13:31:57;40.40;30.20
13049;DHT22;6591;51.446;5.404;2022-08-11T13:34:28;40.30;30.50
13049;DHT22;6591;51.446;5.404;2022-08-11T13:37:01;40.20;30.20
13049;DHT22;6591;51.446;5.404;2022-08-11T13:39:32;40.00;30.20
13049;DHT22;6591;51.446;5.404;2022-08-11T13:42:02;40.40;30.40
13049;DHT22;6591;51.446;5.404;2022-08-11T13:44:32;40.60;30.50
13049;DHT22;6591;51.446;5.404;2022-08-11T13:47:05;40.70;30.10
13049;DHT22;6591;51.446;5.404;2022-08-11T13:49:35;41.00;30.10
13049;DHT22;6591;51.446;5.404;2022-08-11T13:52:09;41.10;30.00
13049;DHT22;6591;51.446;5.404;2022-08-11T13:54:42;41.20;29.90
13049;DHT22;6591;51.446;5.404;2022-08-11T13:57:13;41.30;29.60
13049;DHT22;6591;51.446;5.404;2022-08-11T14:00:04;41.20;29.50
13049;DHT22;6591;51.446;5.404;2022-08-11T14:02:51;41.20;29.70
13049;DHT22;6591;51.446;5.404;2022-08-11T14:05:28;41.10;29.70
13049;DHT22;6591;51.446;5.404;2022-08-11T14:08:01;41.20;29.60
13049;DHT22;6591;51.446;5.404;2022-08-11T14:10:33;41.30;29.80
13049;DHT22;6591;51.446;5.404;2022-08-11T14:13:10;41.40;29.90
13049;DHT22;6591;51.446;5.404;2022-08-11T14:16:15;41.70;29.70
13049;DHT22;6591;51.446;5.404;2022-08-11T14:18:47;42.10;29.40
13049;DHT22;6591;51.446;5.404;2022-08-11T14:21:20;42.30;28.50
13049;DHT22;6591;51.446;5.404;2022-08-11T14:24:09;42.30;28.50
13049;DHT22;6591;51.446;5.404;2022-08-11T14:26:39;42.10;28.30
13049;DHT22;6591;51.446;5.404;2022-08-11T14:29:12;42.00;28.30
13049;DHT22;6591;51.446;5.404;2022-08-11T14:31:49;41.80;28.20
13049;DHT22;6591;51.446;5.404;2022-08-11T14:34:21;41.70;28.40
13049;DHT22;6591;51.446;5.404;2022-08-11T14:36:53;41.50;28.30
13049;DHT22;6591;51.446;5.404;2022-08-11T14:39:27;41.40;28.20
13049;DHT22;6591;51.446;5.404;2022-08-11T14:41:58;41.30;27.80
13049;DHT22;6591;51.446;5.404;2022-08-11T14:44:51;41.80;28.20
13049;DHT22;6591;51.446;5.404;2022-08-11T14:47:54;41.00;28.30
13049;DHT22;6591;51.446;5.404;2022-08-11T14:50:28;40.90;28.20
13049;DHT22;6591;51.446;5.404;2022-08-11T14:53:09;40.90;28.30
13049;DHT22;6591;51.446;5.404;2022-08-11T14:55:44;40.80;28.30
13049;DHT22;6591;51.446;5.404;2022-08-11T14:58:31;40.90;28.60
13049;DHT22;6591;51.446;5.404;2022-08-11T15:01:02;41.00;28.30
13049;DHT22;6591;51.446;5.404;2022-08-11T15:03:50;39.40;27.50
13049;DHT22;6591;51.446;5.404;2022-08-11T15:06:38;41.10;28.40
13049;DHT22;6591;51.446;5.404;2022-08-11T15:09:05;41.20;28.50
13049;DHT22;6591;51.446;5.404;2022-08-11T15:11:35;41.30;28.40
13049;DHT22;6591;51.446;5.404;2022-08-11T15:14:20;41.50;28.60
13049;DHT22;6591;51.446;5.404;2022-08-11T15:17:07;41.60;28.60
13049;DHT22;6591;51.446;5.404;2022-08-11T15:19:39;41.70;28.40
13049;DHT22;6591;51.446;5.404;2022-08-11T15:22:29;41.80;28.40
13049;DHT22;6591;51.446;5.404;2022-08-11T15:25:15;41.80;28.50
13049;DHT22;6591;51.446;5.404;2022-08-11T15:27:43;41.60;28.50
13049;DHT22;6591;51.446;5.404;2022-08-11T15:30:33;41.60;28.50
13049;DHT22;6591;51.446;5.404;2022-08-11T15:33:21;41.50;28.60
13049;DHT22;6591;51.446;5.404;2022-08-11T15:36:13;41.30;28.70
13049;DHT22;6591;51.446;5.404;2022-08-11T15:39:03;41.20;28.80
13049;DHT22;6591;51.446;5.404;2022-08-11T15:41:57;41.20;28.70
13049;DHT22;6591;51.446;5.404;2022-08-11T15:44:57;41.30;28.90
13049;DHT22;6591;51.446;5.404;2022-08-11T15:47:59;41.00;28.80
13049;DHT22;6591;51.446;5.404;2022-08-11T15:50:33;40.90;28.80
13049;DHT22;6591;51.446;5.404;2022-08-11T15:53:19;40.70;28.80
13049;DHT22;6591;51.446;5.404;2022-08-11T15:56:09;40.60;28.80
13049;DHT22;6591;51.446;5.404;2022-08-11T15:58:41;40.40;28.90
13049;DHT22;6591;51.446;5.404;2022-08-11T16:01:52;40.40;28.90
13049;DHT22;6591;51.446;5.404;2022-08-11T16:04:58;40.30;29.10
13049;DHT22;6591;51.446;5.404;2022-08-11T16:07:32;40.30;29.10
13049;DHT22;6591;51.446;5.404;2022-08-11T16:10:12;40.20;28.70
13049;DHT22;6591;51.446;5.404;2022-08-11T16:13:05;40.20;28.50
13049;DHT22;6591;51.446;5.404;2022-08-11T16:15:51;40.10;28.60
13049;DHT22;6591;51.446;5.404;2022-08-11T16:18:56;40.10;28.60
13049;DHT22;6591;51.446;5.404;2022-08-11T16:21:31;40.10;28.60
13049;DHT22;6591;51.446;5.404;2022-08-11T16:24:07;40.20;29.00
13049;DHT22;6591;51.446;5.404;2022-08-11T16:26:57;40.20;28.50
13049;DHT22;6591;51.446;5.404;2022-08-11T16:29:42;40.30;28.70
13049;DHT22;6591;51.446;5.404;2022-08-11T16:32:18;40.50;28.60
13049;DHT22;6591;51.446;5.404;2022-08-11T16:34:52;40.40;28.40
13049;DHT22;6591;51.446;5.404;2022-08-11T16:37:43;40.40;28.30
13049;DHT22;6591;51.446;5.404;2022-08-11T16:40:30;40.40;28.50
13049;DHT22;6591;51.446;5.404;2022-08-11T16:43:00;40.50;28.40
13049;DHT22;6591;51.446;5.404;2022-08-11T16:45:49;40.50;28.30
13049;DHT22;6591;51.446;5.404;2022-08-11T16:48:37;40.40;27.90
13049;DHT22;6591;51.446;5.404;2022-08-11T16:51:10;40.50;28.00
13049;DHT22;6591;51.446;5.404;2022-08-11T16:53:39;40.30;27.90
13049;DHT22;6591;51.446;5.404;2022-08-11T16:56:44;40.30;28.10
13049;DHT22;6591;51.446;5.404;2022-08-11T16:59:25;40.20;28.00
13049;DHT22;6591;51.446;5.404;2022-08-11T17:02:02;40.20;28.30
13049;DHT22;6591;51.446;5.404;2022-08-11T17:04:51;40.10;28.10
13049;DHT22;6591;51.446;5.404;2022-08-11T17:07:40;40.00;28.10
13049;DHT22;6591;51.446;5.404;2022-08-11T17:10:33;39.70;28.10
13049;DHT22;6591;51.446;5.404;2022-08-11T17:13:36;39.80;28.20
13049;DHT22;6591;51.446;5.404;2022-08-11T17:16:10;39.60;28.10
13049;DHT22;6591;51.446;5.404;2022-08-11T17:18:50;39.20;28.30
13049;DHT22;6591;51.446;5.404;2022-08-11T17:21:30;38.90;28.50
13049;DHT22;6591;51.446;5.404;2022-08-11T17:24:03;38.50;28.70
13049;DHT22;6591;51.446;5.404;2022-08-11T17:26:42;38.10;28.90
13049;DHT22;6591;51.446;5.404;2022-08-11T17:29:37;37.70;29.30
13049;DHT22;6591;51.446;5.404;2022-08-11T17:32:45;37.30;29.60
13049;DHT22;6591;51.446;5.404;2022-08-11T17:35:36;36.80;30.00
13049;DHT22;6591;51.446;5.404;2022-08-11T17:38:17;36.40;30.00
13049;DHT22;6591;51.446;5.404;2022-08-11T17:40:51;36.10;30.40
13049;DHT22;6591;51.446;5.404;2022-08-11T17:43:49;35.90;31.00
13049;DHT22;6591;51.446;5.404;2022-08-11T17:46:38;35.70;31.20
13049;DHT22;6591;51.446;5.404;2022-08-11T17:49:32;35.60;31.50
13049;DHT22;6591;51.446;5.404;2022-08-11T17:52:05;35.70;31.80
13049;DHT22;6591;51.446;5.404;2022-08-11T17:54:53;35.60;31.80
13049;DHT22;6591;51.446;5.404;2022-08-11T17:57:40;35.70;31.80
13049;DHT22;6591;51.446;5.404;2022-08-11T18:00:27;35.70;32.00
13049;DHT22;6591;51.446;5.404;2022-08-11T18:02:58;35.80;32.10
13049;DHT22;6591;51.446;5.404;2022-08-11T18:05:45;36.70;32.80
13049;DHT22;6591;51.446;5.404;2022-08-11T18:08:15;36.00;32.30
13049;DHT22;6591;51.446;5.404;2022-08-11T18:11:07;36.00;32.30
13049;DHT22;6591;51.446;5.404;2022-08-11T18:14:14;36.10;32.40
13049;DHT22;6591;51.446;5.404;2022-08-11T18:17:02;36.20;32.80
13049;DHT22;6591;51.446;5.404;2022-08-11T18:19:48;36.20;32.40
13049;DHT22;6591;51.446;5.404;2022-08-11T18:22:40;36.10;32.10
13049;DHT22;6591;51.446;5.404;2022-08-11T18:25:38;36.00;32.30
13049;DHT22;6591;51.446;5.404;2022-08-11T18:28:41;36.00;32.40
13049;DHT22;6591;51.446;5.404;2022-08-11T18:31:32;35.90;32.40
13049;DHT22;6591;51.446;5.404;2022-08-11T18:34:23;35.80;32.40
13049;DHT22;6591;51.446;5.404;2022-08-11T18:37:18;36.50;33.00
13049;DHT22;6591;51.446;5.404;2022-08-11T18:40:25;35.60;32.60
13049;DHT22;6591;51.446;5.404;2022-08-11T18:43:14;35.40;32.80
13049;DHT22;6591;51.446;5.404;2022-08-11T18:46:07;35.20;32.80
13049;DHT22;6591;51.446;5.404;2022-08-11T18:49:02;35.10;33.60
13049;DHT22;6591;51.446;5.404;2022-08-11T18:52:05;34.70;33.10
13049;DHT22;6591;51.446;5.404;2022-08-11T18:54:57;34.40;33.10
13049;DHT22;6591;51.446;5.404;2022-08-11T18:57:49;34.00;33.40
13049;DHT22;6591;51.446;5.404;2022-08-11T19:00:37;33.70;33.60
13049;DHT22;6591;51.446;5.404;2022-08-11T19:03:26;33.40;33.90
13049;DHT22;6591;51.446;5.404;2022-08-11T19:06:17;33.10;34.10
13049;DHT22;6591;51.446;5.404;2022-08-11T19:09:11;32.60;34.30
13049;DHT22;6591;51.446;5.404;2022-08-11T19:12:03;33.10;35.20
13049;DHT22;6591;51.446;5.404;2022-08-11T19:14:52;32.00;35.10
13049;DHT22;6591;51.446;5.404;2022-08-11T19:17:41;32.10;35.50
13049;DHT22;6591;51.446;5.404;2022-08-11T19:20:30;31.90;36.20
13049;DHT22;6591;51.446;5.404;2022-08-11T19:23:33;32.10;36.70
13049;DHT22;6591;51.446;5.404;2022-08-11T19:26:26;30.80;37.40
13049;DHT22;6591;51.446;5.404;2022-08-11T19:29:18;32.20;37.80
13049;DHT22;6591;51.446;5.404;2022-08-11T19:32:27;30.30;37.00
13049;DHT22;6591;51.446;5.404;2022-08-11T19:35:14;30.10;37.30
13049;DHT22;6591;51.446;5.404;2022-08-11T19:38:01;29.90;37.60
13049;DHT22;6591;51.446;5.404;2022-08-11T19:40:48;29.60;37.80
13049;DHT22;6591;51.446;5.404;2022-08-11T19:43:35;29.50;38.20
13049;DHT22;6591;51.446;5.404;2022-08-11T19:46:24;29.30;38.40
13049;DHT22;6591;51.446;5.404;2022-08-11T19:49:11;29.20;38.80
13049;DHT22;6591;51.446;5.404;2022-08-11T19:51:58;30.00;39.60
13049;DHT22;6591;51.446;5.404;2022-08-11T19:54:45;29.80;40.00
13049;DHT22;6591;51.446;5.404;2022-08-11T19:57:35;28.70;39.60
13049;DHT22;6591;51.446;5.404;2022-08-11T20:00:22;29.30;40.30
13049;DHT22;6591;51.446;5.404;2022-08-11T20:03:10;28.40;40.10
13049;DHT22;6591;51.446;5.404;2022-08-11T20:06:00;28.30;40.30
13049;DHT22;6591;51.446;5.404;2022-08-11T20:08:57;29.00;41.40
13049;DHT22;6591;51.446;5.404;2022-08-11T20:11:52;28.00;40.80
13049;DHT22;6591;51.446;5.404;2022-08-11T20:14:41;28.00;41.10
13049;DHT22;6591;51.446;5.404;2022-08-11T20:17:34;27.80;41.20
13049;DHT22;6591;51.446;5.404;2022-08-11T20:20:24;28.30;41.90
13049;DHT22;6591;51.446;5.404;2022-08-11T20:23:14;28.10;41.70
13049;DHT22;6591;51.446;5.404;2022-08-11T20:26:02;28.50;42.30
13049;DHT22;6591;51.446;5.404;2022-08-11T20:28:58;27.50;42.00
13049;DHT22;6591;51.446;5.404;2022-08-11T20:31:46;27.50;42.10
13049;DHT22;6591;51.446;5.404;2022-08-11T20:34:37;27.30;42.10
13049;DHT22;6591;51.446;5.404;2022-08-11T20:37:24;27.30;42.40
13049;DHT22;6591;51.446;5.404;2022-08-11T20:40:20;27.20;42.50
13049;DHT22;6591;51.446;5.404;2022-08-11T20:43:12;27.10;42.60